Time;durP1;ratioP1;P1;durP2;ratioP2;P2;SDS_P1;SDS_P2;PMS_P1;PMS_P2;Temp;Humidity;BMP_temperature;BMP_pressure;BME280_temperature;BME280_humidity;BME280_pressure;Samples;Min_cycle;Max_cycle;Signal;HPM_P1;HPM_P2
2022/04/16 00:00:17;;;;;;;7.30;2.17;;;;;;;6.23;74.80;101816.94;5033964;28;20033;-60
2022/04/16 00:02:45;;;;;;;5.68;2.17;;;;;;;6.36;73.93;101818.91;5033529;28;20036;-59
2022/04/16 00:05:10;;;;;;;4.90;2.28;;;;;;;6.29;74.38;101820.50;5027270;28;20037;-59
2022/04/16 00:07:36;;;;;;;3.58;1.92;;;;;;;6.24;74.46;101831.72;5033785;28;20033;-60
2022/04/16 00:10:03;;;;;;;7.70;2.45;;;;;;;6.04;75.15;101827.00;5033528;28;20095;-59
2022/04/16 00:12:28;;;;;;;6.97;1.90;;;;;;;6.13;75.03;101827.16;5032804;28;20060;-57
2022/04/16 00:14:55;;;;;;;4.30;2.05;;;;;;;6.17;75.04;101828.09;5028602;28;20107;-59
2022/04/16 00:17:20;;;;;;;5.90;1.90;;;;;;;5.98;75.50;101826.84;5026935;28;20064;-59
2022/04/16 00:19:46;;;;;;;4.25;1.88;;;;;;;6.06;75.96;101834.84;5030434;28;20045;-59
2022/04/16 00:22:12;;;;;;;6.45;2.20;;;;;;;5.91;76.90;101835.41;5013670;28;20460;-59
2022/04/16 00:24:39;;;;;;;8.00;2.53;;;;;;;5.93;77.27;101836.34;5032590;28;20473;-60
2022/04/16 00:27:06;;;;;;;4.53;2.20;;;;;;;5.87;77.63;101836.19;5027854;28;20425;-59
2022/04/16 00:29:32;;;;;;;4.97;2.03;;;;;;;5.90;77.71;101844.97;5032484;28;20040;-59
2022/04/16 00:31:57;;;;;;;9.52;2.10;;;;;;;5.88;77.35;101862.28;5031532;28;20041;-59
2022/04/16 00:34:23;;;;;;;7.13;2.30;;;;;;;5.77;78.14;101848.13;5023315;28;20034;-59
2022/04/16 00:36:48;;;;;;;7.88;2.00;;;;;;;5.85;77.93;101851.78;5018965;28;20041;-59
2022/04/16 00:39:13;;;;;;;7.55;2.40;;;;;;;5.63;79.29;101846.97;5017669;28;20042;-59
2022/04/16 00:41:39;;;;;;;7.78;2.10;;;;;;;5.67;79.23;101856.63;5024141;28;20516;-59
2022/04/16 00:44:05;;;;;;;6.25;2.42;;;;;;;5.52;80.18;101851.94;5031818;28;20038;-59
2022/04/16 00:46:31;;;;;;;6.68;2.17;;;;;;;5.45;80.73;101857.88;5028705;28;20485;-60
2022/04/16 00:48:56;;;;;;;5.97;1.95;;;;;;;5.56;79.97;101848.56;5032089;28;20048;-60
2022/04/16 00:51:22;;;;;;;9.70;2.00;;;;;;;5.51;80.35;101849.31;5032722;28;20470;-59
2022/04/16 00:53:48;;;;;;;8.48;2.33;;;;;;;5.39;81.33;101844.72;5033404;28;20033;-59
2022/04/16 00:56:13;;;;;;;7.63;2.25;;;;;;;5.37;81.36;101856.81;5044042;28;20091;-60
2022/04/16 00:58:40;;;;;;;5.47;2.35;;;;;;;5.21;82.46;101859.91;5053145;28;20029;-59
2022/04/16 01:01:06;;;;;;;6.72;2.25;;;;;;;5.22;82.77;101861.66;5034863;28;20038;-59
2022/04/16 01:03:31;;;;;;;9.27;2.60;;;;;;;5.18;83.07;101860.69;5032437;28;20060;-59
2022/04/16 01:05:58;;;;;;;8.30;2.72;;;;;;;5.07;84.22;101863.06;5031499;28;20042;-59
2022/04/16 01:08:23;;;;;;;8.73;2.72;;;;;;;5.07;83.87;101868.28;5023582;28;20418;-59
2022/04/16 01:10:49;;;;;;;7.63;2.28;;;;;;;5.00;85.14;101866.34;5025650;28;20069;-59
2022/04/16 01:13:15;;;;;;;10.70;2.38;;;;;;;4.98;85.69;101870.63;5013633;28;20030;-59
2022/04/16 01:15:41;;;;;;;9.48;2.70;;;;;;;4.86;86.47;101876.41;5014066;28;20042;-59
2022/04/16 01:18:07;;;;;;;7.18;2.25;;;;;;;4.90;86.07;101872.16;5019262;28;20088;-59
2022/04/16 01:20:35;;;;;;;7.03;2.53;;;;;;;4.86;86.42;101867.72;5027285;28;20029;-59
2022/04/16 01:23:02;;;;;;;6.07;2.78;;;;;;;4.76;87.62;101876.16;5014846;28;20041;-59
2022/04/16 01:25:27;;;;;;;7.90;3.20;;;;;;;4.80;87.04;101883.22;5013710;28;20038;-59
2022/04/16 01:27:55;;;;;;;7.63;2.97;;;;;;;4.79;86.59;101876.22;5023474;28;20084;-59
2022/04/16 01:30:22;;;;;;;10.65;2.80;;;;;;;4.76;87.27;101887.44;5028182;28;20033;-59
2022/04/16 01:32:52;;;;;;;8.98;3.20;;;;;;;4.70;87.82;101890.75;5029766;28;20038;-59
2022/04/16 01:35:18;;;;;;;11.77;3.20;;;;;;;4.74;86.68;101883.91;5029280;28;20128;-59
2022/04/16 01:37:44;;;;;;;8.23;2.90;;;;;;;4.75;86.77;101890.91;5034191;28;20128;-60
2022/04/16 01:40:11;;;;;;;10.50;2.95;;;;;;;4.75;86.57;101882.19;5027669;28;20069;-59
2022/04/16 01:42:38;;;;;;;8.57;2.92;;;;;;;4.69;87.07;101881.19;5024734;28;20041;-59
2022/04/16 01:45:09;;;;;;;6.20;2.70;;;;;;;4.63;87.29;101891.47;5016237;28;20383;-59
2022/04/16 01:47:38;;;;;;;7.15;2.47;;;;;;;4.61;87.37;101887.91;5030358;28;20489;-59
2022/04/16 01:50:08;;;;;;;8.95;2.83;;;;;;;4.64;87.23;101890.63;5027928;28;20071;-59
2022/04/16 01:52:35;;;;;;;5.90;2.53;;;;;;;4.60;87.35;101898.31;5017312;28;20490;-59
2022/04/16 01:55:01;;;;;;;8.77;2.53;;;;;;;4.65;86.79;101883.69;5015930;28;20038;-59
2022/04/16 01:57:26;;;;;;;7.55;2.70;;;;;;;4.62;87.24;101899.22;5020278;28;20041;-59
2022/04/16 01:59:53;;;;;;;7.88;2.97;;;;;;;4.56;87.25;101902.53;5015440;28;20045;-59
2022/04/16 02:02:19;;;;;;;5.18;2.30;;;;;;;4.55;87.55;101905.09;5015979;28;20449;-59
2022/04/16 02:04:45;;;;;;;13.13;3.08;;;;;;;4.49;87.80;101908.41;5016200;28;20034;-59
2022/04/16 02:07:11;;;;;;;6.68;2.58;;;;;;;4.51;87.54;101911.97;5034142;28;20120;-59
2022/04/16 02:09:36;;;;;;;7.55;2.72;;;;;;;4.53;87.16;101910.25;5021701;28;20044;-59
2022/04/16 02:12:02;;;;;;;6.00;2.47;;;;;;;4.53;86.90;101920.69;5021760;28;20037;-59
2022/04/16 02:14:28;;;;;;;7.10;2.70;;;;;;;4.55;86.79;101918.09;5021085;28;20037;-59
2022/04/16 02:16:54;;;;;;;11.15;3.05;;;;;;;4.58;87.03;101918.19;5027694;28;20529;-59
2022/04/16 02:19:20;;;;;;;6.70;2.70;;;;;;;4.64;86.35;101919.25;5033765;28;20086;-59
2022/04/16 02:21:46;;;;;;;8.60;2.88;;;;;;;4.61;86.27;101924.38;5033505;28;20033;-59
2022/04/16 02:24:13;;;;;;;8.18;2.67;;;;;;;4.77;85.10;101924.78;5032731;28;20052;-59
2022/04/16 02:26:39;;;;;;;8.10;2.88;;;;;;;4.64;85.83;101928.78;5015549;28;20045;-59
2022/04/16 02:29:04;;;;;;;7.18;2.63;;;;;;;4.62;86.03;101926.13;5027708;28;20030;-59
2022/04/16 02:31:30;;;;;;;9.00;2.13;;;;;;;4.67;85.81;101919.34;5029869;28;20168;-59
2022/04/16 02:33:55;;;;;;;10.95;2.60;;;;;;;4.68;85.26;101922.81;5034558;28;20068;-59
2022/04/16 02:36:25;;;;;;;7.35;2.40;;;;;;;4.64;85.79;101926.19;5020742;28;20390;-60
2022/04/16 02:38:54;;;;;;;6.18;2.55;;;;;;;4.63;85.61;101925.31;5016804;28;20144;-59
2022/04/16 02:41:21;;;;;;;4.88;2.25;;;;;;;4.66;85.23;101925.38;5033995;28;20046;-58
2022/04/16 02:43:47;;;;;;;6.55;2.08;;;;;;;4.65;85.21;101928.81;5033668;28;20041;-59
2022/04/16 02:48:56;;;;;;;6.60;2.15;;;;;;;4.62;86.18;101927.84;5017116;28;20048;-59
2022/04/16 02:51:22;;;;;;;7.90;2.45;;;;;;;4.62;85.21;101926.13;5025445;28;20038;-59
2022/04/16 02:53:47;;;;;;;9.50;2.47;;;;;;;4.61;85.88;101932.19;5034211;28;20493;-59
2022/04/16 02:56:13;;;;;;;11.75;2.10;;;;;;;4.59;85.70;101931.28;5018982;28;20034;-59
2022/04/16 02:58:38;;;;;;;8.02;2.30;;;;;;;4.41;87.24;101928.16;5023997;28;20113;-59
2022/04/16 03:01:04;;;;;;;8.82;2.15;;;;;;;4.40;87.39;101940.28;5018739;28;20117;-59
2022/04/16 03:03:29;;;;;;;4.82;2.30;;;;;;;4.38;87.38;101935.84;5026192;28;20032;-59
2022/04/16 03:05:55;;;;;;;6.55;2.30;;;;;;;4.34;87.97;101945.28;5018943;28;20032;-59
2022/04/16 03:08:20;;;;;;;5.45;1.92;;;;;;;4.30;88.05;101943.44;5031043;28;20037;-59
2022/04/16 03:10:45;;;;;;;8.07;2.28;;;;;;;4.18;89.11;101953.50;5033744;28;20453;-59
2022/04/16 03:13:12;;;;;;;8.10;2.17;;;;;;;4.20;88.83;101950.13;5033174;28;20068;-59
2022/04/16 03:18:21;;;;;;;7.45;2.33;;;;;;;4.27;88.01;101959.00;5032092;28;20523;-59
2022/04/16 03:20:47;;;;;;;4.82;2.10;;;;;;;4.10;89.62;101965.41;5021921;28;20065;-59
2022/04/16 03:23:13;;;;;;;5.38;1.98;;;;;;;4.24;88.57;101968.44;5034668;28;20079;-59
2022/04/16 03:25:40;;;;;;;7.88;2.63;;;;;;;4.16;89.10;101976.88;5033885;28;20040;-59
2022/04/16 03:28:06;;;;;;;7.38;1.85;;;;;;;4.18;89.33;101966.50;5033677;28;20042;-59
2022/04/16 03:30:33;;;;;;;6.45;2.78;;;;;;;4.13;90.03;101979.38;5032103;28;20393;-59
2022/04/16 03:32:59;;;;;;;6.68;2.28;;;;;;;4.25;88.79;101972.78;5020395;28;20056;-59
2022/04/16 03:35:25;;;;;;;8.43;2.13;;;;;;;4.32;88.32;101987.75;5017190;28;20069;-59
2022/04/16 03:37:50;;;;;;;7.78;2.13;;;;;;;4.44;87.66;101980.28;5029866;28;20064;-59
2022/04/16 03:40:16;;;;;;;10.02;2.40;;;;;;;4.43;87.48;101991.56;5029001;28;20037;-59
2022/04/16 03:42:50;;;;;;;6.15;1.70;;;;;;;4.68;86.17;101999.22;5019787;28;20046;-59
2022/04/16 03:45:20;;;;;;;6.70;2.05;;;;;;;4.66;85.54;102000.88;5024548;28;20032;-59
2022/04/16 03:47:48;;;;;;;5.82;1.63;;;;;;;4.80;85.26;102005.59;5028164;28;20043;-59
2022/04/16 03:50:14;;;;;;;6.20;1.73;;;;;;;4.87;84.21;101998.00;5023790;28;20026;-59
2022/04/16 03:52:43;;;;;;;5.07;2.08;;;;;;;4.89;83.63;102006.72;5032955;28;20072;-59
2022/04/16 04:00:46;;;;;;;4.53;2.10;;;;;;;5.04;82.10;102027.13;5032773;28;20052;-60
2022/04/16 04:03:12;;;;;;;7.30;2.10;;;;;;;5.16;81.17;102027.44;5028681;28;20037;-59
2022/04/16 04:05:38;;;;;;;4.28;2.10;;;;;;;5.08;81.66;102017.66;5028865;28;20463;-59
2022/04/16 04:08:08;;;;;;;6.38;2.20;;;;;;;5.22;80.73;102029.31;5018743;28;20108;-59
2022/04/16 04:10:34;;;;;;;8.27;2.30;;;;;;;5.26;80.32;102019.84;5032592;28;20037;-59
2022/04/16 04:13:00;;;;;;;5.03;2.08;;;;;;;5.40;79.36;102024.59;5014935;28;20030;-59
2022/04/16 04:15:29;;;;;;;5.05;2.20;;;;;;;5.46;79.37;102017.75;5021675;28;20061;-59
2022/04/16 04:17:59;;;;;;;5.53;2.60;;;;;;;5.49;78.83;102017.84;5024984;28;20041;-59
2022/04/16 04:20:25;;;;;;;7.03;2.38;;;;;;;5.50;78.77;102025.69;5026473;28;20033;-60
2022/04/16 04:22:50;;;;;;;4.80;2.15;;;;;;;5.71;77.77;102027.97;5014950;28;20033;-59
2022/04/16 04:25:16;;;;;;;7.75;2.78;;;;;;;5.68;77.64;102028.78;5022733;28;20473;-59
2022/04/16 04:27:42;;;;;;;5.20;2.08;;;;;;;5.74;77.35;102022.81;5032990;28;20103;-60
2022/04/16 04:30:08;;;;;;;9.68;2.63;;;;;;;5.77;77.22;102024.63;5015709;28;20045;-60
2022/04/16 04:32:33;;;;;;;4.22;1.98;;;;;;;5.86;77.11;102027.44;5029750;28;20045;-60
2022/04/16 04:34:58;;;;;;;7.30;2.30;;;;;;;5.78;77.07;102018.56;5025064;28;20595;-60
2022/04/16 04:37:24;;;;;;;8.93;2.65;;;;;;;5.83;77.08;102030.88;5033468;28;20041;-60
2022/04/16 04:39:50;;;;;;;8.60;2.40;;;;;;;5.97;76.58;102046.88;5030520;28;20496;-60
2022/04/16 04:42:26;;;;;;;6.18;2.00;;;;;;;6.00;75.87;102046.97;5032557;28;20466;-59
2022/04/16 04:44:51;;;;;;;7.15;2.45;;;;;;;5.87;76.45;102043.16;5032864;28;20052;-60
2022/04/16 04:47:17;;;;;;;6.30;2.17;;;;;;;5.71;76.87;102055.78;5028390;28;20041;-59
2022/04/16 04:49:42;;;;;;;6.20;2.30;;;;;;;5.81;76.63;102057.78;5013657;28;20540;-59
2022/04/16 04:52:08;;;;;;;7.18;2.08;;;;;;;5.84;76.56;102060.47;5013168;28;20125;-59
2022/04/16 04:54:33;;;;;;;7.13;2.30;;;;;;;5.83;76.67;102064.81;5013415;28;20544;-59
2022/04/16 04:56:59;;;;;;;5.15;2.22;;;;;;;5.92;76.13;102070.25;5027726;28;20072;-60
2022/04/16 04:59:24;;;;;;;4.85;2.35;;;;;;;5.91;75.59;102070.22;5031499;28;20083;-59
2022/04/16 05:01:50;;;;;;;8.68;1.70;;;;;;;6.00;75.28;102080.00;5032062;28;20068;-59
2022/04/16 05:04:15;;;;;;;6.88;2.00;;;;;;;6.04;75.42;102066.19;5036081;28;20051;-59
2022/04/16 05:06:41;;;;;;;7.63;2.58;;;;;;;5.98;75.19;102079.94;5035251;28;20033;-60
2022/04/16 05:09:06;;;;;;;6.10;1.92;;;;;;;5.93;74.95;102085.06;5019028;28;20100;-60
2022/04/16 05:11:32;;;;;;;8.00;2.25;;;;;;;5.99;75.05;102089.56;5017034;28;20045;-59
2022/04/16 05:13:57;;;;;;;7.28;2.30;;;;;;;6.08;74.33;102094.13;5027390;28;20048;-59
2022/04/16 05:16:23;;;;;;;6.00;2.70;;;;;;;6.06;74.36;102091.47;5020970;28;20108;-59
2022/04/16 05:18:49;;;;;;;6.38;1.90;;;;;;;6.08;73.94;102099.34;5032435;28;20374;-59
2022/04/16 05:21:16;;;;;;;6.63;2.83;;;;;;;6.07;73.58;102097.59;5017026;28;20065;-59
2022/04/16 05:23:41;;;;;;;5.70;2.00;;;;;;;6.05;73.43;102102.75;5017203;28;20038;-59
2022/04/16 05:26:11;;;;;;;5.63;2.38;;;;;;;5.96;73.15;102112.97;5026213;28;20042;-59
2022/04/16 05:28:38;;;;;;;6.50;2.10;;;;;;;6.09;73.11;102107.19;5034943;28;20033;-59
2022/04/16 05:31:05;;;;;;;8.52;2.05;;;;;;;6.19;72.65;102117.88;5021309;28;20045;-59
2022/04/16 05:36:15;;;;;;;5.75;1.90;;;;;;;6.26;71.90;102111.94;5028314;28;20113;-59
2022/04/16 05:38:40;;;;;;;4.20;1.40;;;;;;;6.40;71.04;102126.22;5029757;28;20124;-59
2022/04/16 05:41:06;;;;;;;6.10;1.70;;;;;;;6.48;70.84;102122.03;5030327;28;20121;-59
2022/04/16 05:43:31;;;;;;;5.13;2.20;;;;;;;6.72;70.40;102126.94;5017029;28;20132;-59
2022/04/16 05:45:57;;;;;;;5.32;1.67;;;;;;;6.87;70.04;102119.44;5028032;28;20392;-59
2022/04/16 05:48:22;;;;;;;6.40;1.90;;;;;;;6.93;68.54;102125.63;5035897;28;20037;-59
2022/04/16 05:50:48;;;;;;;5.05;1.65;;;;;;;6.92;67.86;102114.28;5033222;28;20503;-59
2022/04/16 05:53:15;;;;;;;7.03;1.70;;;;;;;6.86;67.30;102114.16;5020477;28;20538;-59
2022/04/16 05:55:50;;;;;;;2.33;1.25;;;;;;;6.90;66.63;102129.03;5029998;28;20091;-59
2022/04/16 05:58:16;;;;;;;5.38;1.40;;;;;;;7.05;65.63;102113.69;5030712;28;20409;-59
2022/04/16 06:00:42;;;;;;;4.35;1.40;;;;;;;7.26;65.44;102112.34;5026525;28;20477;-60
2022/04/16 06:03:08;;;;;;;3.58;1.35;;;;;;;7.38;65.01;102115.19;5019109;28;20044;-59
2022/04/16 06:05:33;;;;;;;6.20;1.73;;;;;;;7.43;64.28;102107.47;5028813;28;20393;-59
2022/04/16 06:08:00;;;;;;;5.65;1.25;;;;;;;7.46;63.69;102115.34;5017264;28;20469;-59
2022/04/16 06:10:26;;;;;;;4.47;1.55;;;;;;;7.60;63.17;102116.50;5034024;28;20040;-59
2022/04/16 06:12:51;;;;;;;7.03;1.75;;;;;;;7.49;62.25;102124.13;5034172;28;20038;-59
2022/04/16 06:15:17;;;;;;;4.55;1.25;;;;;;;7.27;60.90;102132.44;5034912;28;20044;-60
2022/04/16 06:20:23;;;;;;;4.75;1.33;;;;;;;7.48;61.16;102122.38;5090794;27;20710;-67
2022/04/16 06:22:48;;;;;;;3.60;1.10;;;;;;;7.44;60.85;102131.00;5096345;28;20487;-68
2022/04/16 06:25:14;;;;;;;1.90;0.95;;;;;;;7.60;60.69;102125.22;5095037;28;20089;-68
2022/04/16 06:27:40;;;;;;;3.17;1.30;;;;;;;7.43;59.18;102142.34;5089204;28;20512;-68
2022/04/16 06:30:08;;;;;;;4.60;1.75;;;;;;;7.27;58.97;102133.31;5090136;28;20032;-67
2022/04/16 06:32:34;;;;;;;3.58;1.13;;;;;;;7.62;59.06;102128.75;5089496;28;20036;-69
2022/04/16 06:35:05;;;;;;;3.30;1.10;;;;;;;7.68;57.66;102142.78;5090549;28;20048;-71
2022/04/16 06:37:32;;;;;;;1.70;0.82;;;;;;;7.88;57.23;102133.56;5090452;28;20096;-70
2022/04/16 06:39:57;;;;;;;3.60;1.10;;;;;;;7.82;55.77;102134.34;5089314;28;20032;-66
2022/04/16 06:42:23;;;;;;;3.15;1.17;;;;;;;7.87;54.66;102147.50;5090196;28;20036;-69
2022/04/16 06:44:48;;;;;;;2.95;0.95;;;;;;;7.96;55.05;102149.41;5090341;28;20040;-68
2022/04/16 06:47:13;;;;;;;1.80;0.93;;;;;;;8.03;54.68;102144.28;5088515;28;20036;-67
2022/04/16 06:49:39;;;;;;;2.90;1.30;;;;;;;8.25;54.44;102142.91;5087834;28;20177;-66
2022/04/16 06:52:05;;;;;;;3.45;1.30;;;;;;;8.53;54.51;102152.09;5088523;28;20089;-70
2022/04/16 06:54:30;;;;;;;3.38;1.20;;;;;;;8.36;53.14;102143.06;5082864;28;20052;-69
2022/04/16 06:56:55;;;;;;;2.88;1.38;;;;;;;8.26;53.74;102135.91;5067947;28;20112;-69
2022/04/16 06:59:21;;;;;;;4.40;1.27;;;;;;;8.53;54.14;102141.59;5065925;28;20472;-68
2022/04/16 07:01:46;;;;;;;4.93;1.50;;;;;;;8.66;52.66;102154.88;5071339;28;20037;-70
2022/04/16 07:04:12;;;;;;;2.58;0.98;;;;;;;8.63;51.79;102153.13;5072009;28;20090;-67
2022/04/16 07:06:39;;;;;;;3.90;1.10;;;;;;;8.67;52.04;102170.66;5073202;28;20033;-69
2022/04/16 07:09:05;;;;;;;3.88;1.20;;;;;;;8.71;51.52;102190.81;5070567;28;20488;-70
2022/04/16 07:11:30;;;;;;;2.58;1.13;;;;;;;8.68;51.44;102161.94;5068922;28;20037;-67
2022/04/16 07:13:56;;;;;;;2.13;1.05;;;;;;;8.81;51.75;102169.09;5069238;28;20052;-68
2022/04/16 07:16:21;;;;;;;1.65;0.80;;;;;;;8.63;50.26;102169.72;5068854;28;20040;-69
2022/04/16 07:18:46;;;;;;;2.00;0.80;;;;;;;8.78;51.46;102162.94;5068821;28;20056;-70
2022/04/16 07:21:12;;;;;;;2.45;0.82;;;;;;;8.84;50.38;102157.78;5067919;28;20047;-70
2022/04/16 07:23:37;;;;;;;2.75;0.75;;;;;;;8.84;50.14;102174.38;5068805;28;20041;-69
2022/04/16 07:26:02;;;;;;;1.65;0.70;;;;;;;9.11;49.94;102167.75;5068911;28;20421;-66
2022/04/16 07:28:28;;;;;;;2.58;1.30;;;;;;;8.90;49.13;102176.22;5068529;28;20112;-68
2022/04/16 07:30:53;;;;;;;1.10;0.73;;;;;;;9.01;48.29;102171.09;5058424;28;20043;-68
2022/04/16 07:33:19;;;;;;;1.85;0.80;;;;;;;9.00;48.64;102175.47;5054055;28;20522;-67
2022/04/16 07:35:44;;;;;;;1.40;0.82;;;;;;;9.35;48.53;102173.31;5055565;28;20546;-67
2022/04/16 07:38:11;;;;;;;1.80;0.75;;;;;;;9.33;47.80;102182.00;5055924;28;20065;-68
2022/04/16 07:40:37;;;;;;;1.98;0.93;;;;;;;9.54;48.64;102168.28;5056827;28;20040;-68
2022/04/16 07:43:02;;;;;;;1.17;0.68;;;;;;;9.68;48.38;102176.28;5053938;28;20128;-69
2022/04/16 07:45:28;;;;;;;2.88;0.93;;;;;;;9.61;47.09;102176.25;5060023;28;20468;-69
2022/04/16 07:47:54;;;;;;;2.75;1.10;;;;;;;9.79;46.81;102193.03;5064829;28;20114;-67
2022/04/16 07:50:19;;;;;;;1.67;0.98;;;;;;;9.46;47.14;102186.56;5055996;28;20493;-69
2022/04/16 07:52:46;;;;;;;2.90;1.25;;;;;;;9.06;47.95;102217.53;5055719;28;20044;-68
2022/04/16 07:55:12;;;;;;;3.38;0.90;;;;;;;9.28;48.23;102197.69;5055878;28;20037;-69
2022/04/16 07:57:38;;;;;;;4.15;0.98;;;;;;;9.31;47.74;102186.38;5055872;28;20029;-69
2022/04/16 08:00:06;;;;;;;1.20;0.82;;;;;;;9.58;47.50;102183.19;5055496;28;20082;-68
2022/04/16 08:02:31;;;;;;;2.47;0.82;;;;;;;9.51;46.27;102197.97;5054019;28;20021;-68
2022/04/16 08:04:56;;;;;;;2.08;0.85;;;;;;;9.56;47.12;102196.28;5055751;28;20033;-68
2022/04/16 08:07:22;;;;;;;1.80;1.10;;;;;;;9.47;47.25;102192.69;5056199;28;20106;-68
2022/04/16 08:09:47;;;;;;;4.15;1.30;;;;;;;9.32;47.62;102207.34;5055288;28;20393;-68
2022/04/16 08:12:13;;;;;;;3.15;1.10;;;;;;;9.37;48.50;102196.91;5058579;28;20037;-69
2022/04/16 08:14:38;;;;;;;2.20;0.93;;;;;;;9.43;47.33;102185.63;5054062;28;20162;-69
2022/04/16 08:17:04;;;;;;;2.70;1.10;;;;;;;9.44;47.38;102193.50;5054888;28;20056;-68
2022/04/16 08:19:29;;;;;;;3.17;0.98;;;;;;;9.18;47.49;102198.44;5055062;28;20128;-68
2022/04/16 08:21:55;;;;;;;2.97;0.90;;;;;;;9.04;46.83;102192.13;5052810;28;20037;-66
2022/04/16 08:26:52;;;;;;;1.70;0.98;;;;;;;9.24;47.38;102185.41;5053826;28;20041;-68
2022/04/16 08:29:18;;;;;;;5.07;0.82;;;;;;;9.40;47.06;102180.34;5053560;28;20472;-66
2022/04/16 08:31:43;;;;;;;1.73;0.60;;;;;;;9.52;47.20;102183.09;5054660;28;20120;-66
2022/04/16 08:34:09;;;;;;;4.10;0.73;;;;;;;9.70;46.05;102185.06;5055700;28;20033;-69
2022/04/16 08:36:34;;;;;;;1.92;0.80;;;;;;;9.75;45.21;102188.63;5053536;28;20060;-65
2022/04/16 08:39:00;;;;;;;1.63;0.70;;;;;;;9.94;45.58;102173.94;5067639;28;20043;-66
2022/04/16 08:41:25;;;;;;;1.92;0.80;;;;;;;10.30;45.64;102170.78;5071867;28;20051;-67
2022/04/16 08:43:53;;;;;;;1.08;0.63;;;;;;;10.43;45.41;102177.00;5068838;28;20037;-66
2022/04/16 08:46:18;;;;;;;1.75;0.65;;;;;;;10.54;45.28;102176.22;5072259;28;20032;-67
2022/04/16 08:48:44;;;;;;;3.00;0.85;;;;;;;10.28;44.68;102202.28;5059369;28;20114;-66
2022/04/16 08:51:10;;;;;;;1.88;0.65;;;;;;;10.43;44.42;102183.13;5055762;28;20499;-69
2022/04/16 08:53:36;;;;;;;2.15;0.80;;;;;;;10.41;44.58;102192.75;5061762;28;20041;-69
2022/04/16 08:56:01;;;;;;;2.53;0.63;;;;;;;10.44;44.61;102187.50;5063569;28;20021;-69
2022/04/16 08:58:29;;;;;;;1.33;0.40;;;;;;;10.77;42.70;102199.13;5054278;28;20434;-68
2022/04/16 09:00:56;;;;;;;1.20;0.50;;;;;;;10.43;42.78;102198.03;5054135;28;20044;-68
2022/04/16 09:03:30;;;;;;;1.45;0.60;;;;;;;10.16;44.37;102199.50;5054031;28;20112;-68
2022/04/16 09:05:55;;;;;;;1.25;0.52;;;;;;;10.24;45.11;102186.44;5060701;28;20127;-69
2022/04/16 09:08:27;;;;;;;1.45;0.57;;;;;;;10.38;43.33;102176.97;5058081;28;20116;-68
2022/04/16 09:11:04;;;;;;;1.70;0.60;;;;;;;10.79;42.33;102179.88;5053251;28;20140;-68
2022/04/16 09:13:30;;;;;;;1.52;0.80;;;;;;;10.66;43.33;102199.06;5056758;28;20027;-67
2022/04/16 09:16:06;;;;;;;1.13;0.50;;;;;;;10.52;41.42;102175.31;5061609;28;20387;-67
2022/04/16 09:18:47;;;;;;;1.63;0.60;;;;;;;10.72;41.54;102208.75;5057571;28;20468;-69
2022/04/16 09:21:13;;;;;;;1.15;0.60;;;;;;;10.80;41.09;102196.53;5060525;28;20411;-67
2022/04/16 09:23:47;;;;;;;0.93;0.47;;;;;;;11.34;40.68;102180.16;5058729;28;20112;-67
2022/04/16 09:26:24;;;;;;;1.20;0.40;;;;;;;11.45;40.50;102193.34;5058210;28;20044;-67
2022/04/16 09:28:51;;;;;;;1.35;0.63;;;;;;;11.88;39.50;102188.22;5055337;28;20064;-68
2022/04/16 09:31:18;;;;;;;1.45;0.57;;;;;;;12.07;39.60;102174.19;5054328;28;20060;-68
2022/04/16 09:33:45;;;;;;;2.00;0.57;;;;;;;12.29;38.86;102179.50;5058080;28;20040;-68
2022/04/16 09:36:10;;;;;;;2.08;0.77;;;;;;;12.24;39.63;102189.13;5058002;28;20043;-69
2022/04/16 09:38:37;;;;;;;2.35;0.60;;;;;;;11.98;38.63;102190.00;5053436;28;20029;-67
2022/04/16 09:41:08;;;;;;;2.17;0.50;;;;;;;11.78;39.46;102197.84;5052015;28;20487;-69
2022/04/16 09:43:38;;;;;;;2.58;0.70;;;;;;;11.75;39.69;102194.31;5051578;28;20158;-66
2022/04/16 09:46:11;;;;;;;1.23;0.60;;;;;;;11.52;40.20;102216.16;5052072;28;20437;-67
2022/04/16 09:48:36;;;;;;;;;;;;;;;10.56;41.40;102227.03;5052796;28;20036;-67
2022/04/16 09:51:04;;;;;;;1.88;0.60;;;;;;;10.89;41.52;102211.47;5052220;28;19917;-67
2022/04/16 09:53:30;;;;;;;2.63;0.80;;;;;;;11.19;42.41;102216.03;5052621;28;20469;-67
2022/04/16 09:55:58;;;;;;;2.97;0.70;;;;;;;10.87;43.27;102216.75;5052330;28;20112;-67
2022/04/16 09:58:33;;;;;;;2.63;0.85;;;;;;;10.79;44.63;102211.44;5051673;28;20028;-68
2022/04/16 10:01:01;;;;;;;2.70;1.10;;;;;;;10.72;44.30;102216.63;5052372;28;20103;-66
2022/04/16 10:03:27;;;;;;;5.85;1.67;;;;;;;10.87;44.95;102214.09;5052598;28;20489;-68
2022/04/16 10:05:55;;;;;;;3.92;1.60;;;;;;;10.66;45.43;102225.38;5052667;28;20039;-67
2022/04/16 10:08:22;;;;;;;4.35;1.42;;;;;;;10.54;45.26;102214.75;5052400;28;20036;-67
2022/04/16 10:10:54;;;;;;;4.22;1.30;;;;;;;10.83;45.17;102225.47;5056619;28;20465;-67
2022/04/16 10:13:20;;;;;;;3.40;1.30;;;;;;;10.84;46.92;102220.22;5058902;28;20033;-68
2022/04/16 10:16:01;;;;;;;4.55;1.20;;;;;;;10.48;47.41;102214.69;5061167;28;20051;-67
2022/04/16 10:18:28;;;;;;;2.60;1.00;;;;;;;10.37;47.35;102227.75;5052074;28;20056;-68
2022/04/16 10:20:58;;;;;;;6.40;1.50;;;;;;;10.12;48.74;102229.25;5051878;28;20045;-68
2022/04/16 10:23:30;;;;;;;4.43;1.25;;;;;;;10.19;48.89;102238.06;5057352;28;20111;-67
2022/04/16 10:26:02;;;;;;;5.97;1.30;;;;;;;10.49;47.30;102225.25;5068431;28;20040;-66
2022/04/16 10:28:36;;;;;;;2.72;0.95;;;;;;;10.62;45.68;102236.72;5055304;28;20503;-67
2022/04/16 10:31:02;;;;;;;3.40;0.93;;;;;;;10.62;46.64;102228.84;5052672;28;20045;-67
2022/04/16 10:33:28;;;;;;;2.72;1.00;;;;;;;10.96;46.34;102226.44;5062557;28;20071;-68
2022/04/16 10:36:02;;;;;;;2.10;0.90;;;;;;;10.69;44.67;102249.06;5050692;28;20048;-69
2022/04/16 10:38:35;;;;;;;4.20;0.90;;;;;;;10.57;46.99;102236.69;5054184;28;20036;-68
2022/04/16 10:41:02;;;;;;;1.90;0.80;;;;;;;10.48;47.38;102220.84;5049701;28;20668;-70
2022/04/16 10:43:32;;;;;;;6.38;2.30;;;;;;;10.73;47.00;102228.91;5058032;28;20045;-70
2022/04/16 10:46:08;;;;;;;4.78;1.40;;;;;;;10.46;47.68;102221.72;5056627;28;20033;-70
2022/04/16 10:48:36;;;;;;;3.47;0.88;;;;;;;10.28;44.97;102249.56;5051517;28;20037;-69
2022/04/16 10:51:03;;;;;;;2.08;1.02;;;;;;;10.36;45.48;102231.25;5052623;28;20029;-71
2022/04/16 10:53:32;;;;;;;2.33;0.70;;;;;;;10.52;44.66;102222.63;5054346;28;20499;-70
2022/04/16 10:56:06;;;;;;;2.35;0.73;;;;;;;10.64;45.11;102242.88;5051276;28;20476;-70
2022/04/16 10:58:33;;;;;;;2.95;1.10;;;;;;;10.94;45.47;102215.91;5057035;28;20041;-70
2022/04/16 11:01:10;;;;;;;3.75;1.10;;;;;;;10.68;46.92;102231.50;5050075;28;20033;-69
2022/04/16 11:03:48;;;;;;;2.63;1.10;;;;;;;10.69;46.09;102229.75;5061719;28;20374;-69
2022/04/16 11:06:16;;;;;;;3.67;1.00;;;;;;;10.76;45.66;102227.19;5060376;28;20058;-69
2022/04/16 11:08:42;;;;;;;1.35;0.60;;;;;;;10.99;45.34;102234.34;5062654;28;20028;-68
2022/04/16 11:11:09;;;;;;;1.92;0.73;;;;;;;10.68;45.47;102223.63;5053697;28;20120;-70
2022/04/16 11:13:39;;;;;;;2.17;1.00;;;;;;;10.56;45.10;102242.81;5054056;28;20534;-69
2022/04/16 11:16:06;;;;;;;1.85;0.77;;;;;;;10.57;43.16;102276.13;5060038;28;20067;-69
2022/04/16 11:18:45;;;;;;;3.00;0.90;;;;;;;10.51;43.08;102256.78;5057058;28;20045;-69
2022/04/16 11:21:26;;;;;;;2.17;0.77;;;;;;;10.40;42.04;102248.81;5048916;28;20041;-69
2022/04/16 11:23:52;;;;;;;1.60;0.63;;;;;;;10.63;42.14;102246.38;5052725;28;20384;-70
2022/04/16 11:34:45;;;;;;;1.30;0.65;;;;;;;10.44;42.58;102255.84;5055985;28;20098;-70
2022/04/16 11:37:13;;;;;;;1.88;0.90;;;;;;;10.69;42.55;102250.78;5059345;28;20040;-70
2022/04/16 11:39:38;;;;;;;2.10;0.98;;;;;;;10.74;43.50;102238.56;5060930;28;20079;-70
2022/04/16 11:42:07;;;;;;;4.00;0.85;;;;;;;10.80;42.33;102257.00;5054196;28;20037;-70
2022/04/16 11:44:34;;;;;;;1.08;0.57;;;;;;;10.57;42.83;102236.69;5053884;28;20044;-70
2022/04/16 11:47:02;;;;;;;3.22;0.70;;;;;;;10.93;42.18;102235.19;5056326;28;20028;-67
2022/04/16 11:49:30;;;;;;;1.25;0.55;;;;;;;10.50;40.82;102255.91;5058692;28;20025;-70
2022/04/16 11:51:56;;;;;;;1.35;0.70;;;;;;;10.47;39.85;102265.50;5055253;28;20036;-69
2022/04/16 11:54:31;;;;;;;1.83;0.52;;;;;;;10.50;39.90;102239.25;5054603;28;20048;-68
2022/04/16 11:56:57;;;;;;;2.70;0.73;;;;;;;10.47;40.46;102248.00;5057628;28;20043;-70